Becancour, Canada
Current Conditions -  °F | °C
As of 5:00 AM on Wednesday 22 Oct 2014 (Local Time) from CYRQ Reporting Station
Overcast Overcast  
Wind Chill: 38°   Ceiling: 6000
Heat Index: 45°   Visibility: 9mi
Dew Point: 32°   Wind: 14mph
Humidity: 61%   Direction: 50°NE
Pressure: 30.26"   Gusts: 20mph
Location:  46.36°N, 72.44°W
Report Text: CYRQ 220900Z AUTO 05012G17KT 9SM OVC060 07/00 A3026 RMK SLP250
Loading
Personal Weather Stations






























Interactive Weather Map
Tropical Storm Tracking
New forecast layout! Learn more

10-Day Weather Forecast

Advertisements
Track Severe Weather on mobile